Time;durP1;ratioP1;P1;durP2;ratioP2;P2;SDS_P1;SDS_P2;PMS_P1;PMS_P2;Temp;Humidity;BMP_temperature;BMP_pressure;BME280_temperature;BME280_humidity;BME280_pressure;Samples;Min_cycle;Max_cycle;Signal;HPM_P1;HPM_P2
2023/12/11 00:00:37;;;;;;;5.20;4.70;;;;;;;4.14;100.00;62420.00;5105279;28;20740;-77
2023/12/11 00:03:04;;;;;;;5.63;5.10;;;;;;;4.01;100.00;62408.63;5100068;28;20392;-76
2023/12/11 00:05:32;;;;;;;6.10;4.25;;;;;;;3.88;100.00;62403.34;5104343;28;20216;-77
2023/12/11 00:08:00;;;;;;;4.32;3.95;;;;;;;3.82;100.00;62396.63;5105977;28;20215;-77
2023/12/11 00:10:26;;;;;;;7.30;5.97;;;;;;;3.78;100.00;62384.97;5103326;28;20468;-76
2023/12/11 00:12:53;;;;;;;5.40;4.90;;;;;;;3.72;100.00;62378.81;5087867;28;20416;-77
2023/12/11 00:15:21;;;;;;;5.32;4.82;;;;;;;3.62;100.00;62369.03;5126607;28;20241;-76
2023/12/11 00:17:47;;;;;;;6.55;5.80;;;;;;;3.60;100.00;62366.97;5120551;28;20196;-77
2023/12/11 00:20:14;;;;;;;5.20;4.57;;;;;;;3.47;100.00;62351.59;5096666;28;20536;-79
2023/12/11 00:22:43;;;;;;;5.88;5.00;;;;;;;3.40;100.00;62351.97;5085190;28;20271;-77
2023/12/11 00:25:11;;;;;;;5.15;4.03;;;;;;;3.40;100.00;62346.41;5099459;28;20554;-76
2023/12/11 00:27:38;;;;;;;4.30;3.97;;;;;;;3.39;100.00;62348.41;5106053;28;20204;-76
2023/12/11 00:30:06;;;;;;;4.75;4.28;;;;;;;3.44;100.00;62351.03;5093751;28;20288;-77
2023/12/11 00:32:33;;;;;;;5.20;4.70;;;;;;;3.51;100.00;62358.25;5088761;28;20236;-75
2023/12/11 00:35:00;;;;;;;4.22;3.83;;;;;;;3.50;100.00;62349.16;5105196;28;20216;-76
2023/12/11 00:37:27;;;;;;;4.47;4.03;;;;;;;3.48;100.00;62355.16;5104864;28;20191;-76
2023/12/11 00:39:55;;;;;;;6.80;5.95;;;;;;;3.51;100.00;62350.69;5086290;28;20219;-76
2023/12/11 00:42:22;;;;;;;6.30;4.90;;;;;;;3.49;100.00;62358.19;5084523;28;20282;-76
2023/12/11 00:44:49;;;;;;;5.95;4.60;;;;;;;3.58;100.00;62364.91;5103629;28;20282;-76
2023/12/11 00:47:16;;;;;;;7.22;5.30;;;;;;;3.63;100.00;62372.06;5104574;28;20210;-77
2023/12/11 00:49:43;;;;;;;9.27;5.75;;;;;;;3.72;100.00;62378.81;5104871;28;20226;-76
2023/12/11 00:52:09;;;;;;;9.70;6.10;;;;;;;3.76;100.00;62380.41;5099524;28;20228;-75
2023/12/11 00:54:36;;;;;;;7.47;5.45;;;;;;;3.76;100.00;62382.91;5084651;28;20246;-75
2023/12/11 00:57:05;;;;;;;9.57;6.20;;;;;;;3.78;100.00;62384.97;5084541;28;20200;-76
2023/12/11 00:59:32;;;;;;;10.00;6.47;;;;;;;3.80;100.00;62389.53;5088103;28;20251;-76
2023/12/11 01:01:59;;;;;;;7.03;5.95;;;;;;;3.81;100.00;62388.06;5104334;28;20192;-76
2023/12/11 01:04:26;;;;;;;7.60;5.80;;;;;;;3.80;100.00;62384.50;5104140;28;20392;-77
2023/12/11 01:06:53;;;;;;;12.27;6.05;;;;;;;3.77;100.00;62381.44;5104003;28;20203;-75
2023/12/11 01:09:20;;;;;;;9.48;6.63;;;;;;;3.79;100.00;62384.00;5094098;28;20225;-76
2023/12/11 01:11:46;;;;;;;10.90;7.60;;;;;;;3.82;100.00;62387.09;5083920;28;20242;-76
2023/12/11 01:14:15;;;;;;;9.45;7.05;;;;;;;3.80;100.00;62387.03;5086209;28;20239;-75
2023/12/11 01:16:42;;;;;;;7.38;5.82;;;;;;;3.82;100.00;62392.13;5098385;28;20274;-76
2023/12/11 01:19:08;;;;;;;7.63;6.35;;;;;;;3.80;100.00;62390.06;5099979;28;20238;-76
2023/12/11 01:21:35;;;;;;;7.78;6.45;;;;;;;3.85;100.00;62392.69;5083685;28;20196;-75
2023/12/11 01:24:02;;;;;;;8.38;6.72;;;;;;;3.74;100.00;62380.84;5086154;28;20387;-76
2023/12/11 01:26:29;;;;;;;10.13;5.82;;;;;;;3.77;100.00;62386.47;5102937;28;20200;-76
2023/12/11 01:28:56;;;;;;;24.63;14.55;;;;;;;3.62;100.00;62373.56;5083976;28;20426;-76
2023/12/11 01:31:24;;;;;;;7.32;6.22;;;;;;;3.59;100.00;62365.94;5084692;28;20238;-75
2023/12/11 01:33:51;;;;;;;8.50;6.35;;;;;;;3.50;100.00;62359.72;5097740;28;20543;-75
2023/12/11 01:36:18;;;;;;;7.95;6.03;;;;;;;3.48;100.00;62359.69;5083034;28;20204;-76
2023/12/11 01:38:47;;;;;;;9.38;6.45;;;;;;;3.30;100.00;62339.16;5083520;28;20240;-74
2023/12/11 01:41:14;;;;;;;8.13;5.65;;;;;;;3.27;100.00;62335.56;5086187;28;20259;-76
2023/12/11 01:43:41;;;;;;;9.20;6.55;;;;;;;3.19;100.00;62324.84;5103745;28;20220;-76
2023/12/11 01:46:10;;;;;;;6.50;5.63;;;;;;;3.15;100.00;62320.72;5104528;28;20198;-75
2023/12/11 01:48:39;;;;;;;7.63;5.88;;;;;;;3.08;100.00;62318.53;5106293;28;20290;-76
2023/12/11 01:51:06;;;;;;;8.98;6.70;;;;;;;3.11;100.00;62314.59;5104407;28;20231;-76
2023/12/11 01:53:33;;;;;;;10.93;6.80;;;;;;;3.20;100.00;62330.88;5094741;28;20251;-75
2023/12/11 01:56:00;;;;;;;9.40;5.50;;;;;;;3.25;100.00;62336.03;5104119;28;20207;-76
2023/12/11 01:58:29;;;;;;;8.68;6.22;;;;;;;3.27;100.00;62336.09;5104186;28;20207;-76
2023/12/11 02:00:56;;;;;;;7.70;5.97;;;;;;;3.31;100.00;62337.66;5103952;28;20396;-76
2023/12/11 02:03:23;;;;;;;9.75;6.30;;;;;;;3.33;100.00;62336.72;5099688;28;20275;-76
2023/12/11 02:05:52;;;;;;;6.07;5.03;;;;;;;3.39;100.00;62345.38;5105441;28;20237;-76
2023/12/11 02:08:19;;;;;;;7.18;5.53;;;;;;;3.42;100.00;62351.50;5105064;28;20262;-76
2023/12/11 02:10:46;;;;;;;7.80;5.38;;;;;;;3.38;100.00;62344.38;5097728;28;20254;-74
2023/12/11 02:13:14;;;;;;;5.50;4.60;;;;;;;3.43;100.00;62350.00;5093436;28;20200;-76
2023/12/11 02:15:41;;;;;;;6.18;4.80;;;;;;;3.40;100.00;62351.44;5103255;28;20230;-75
2023/12/11 02:18:08;;;;;;;5.35;4.70;;;;;;;3.43;100.00;62352.03;5104226;28;20210;-74
2023/12/11 02:20:35;;;;;;;5.30;4.80;;;;;;;3.46;100.00;62352.59;5094658;28;20224;-75
2023/12/11 02:23:05;;;;;;;5.20;4.07;;;;;;;3.49;100.00;62355.66;5102145;28;20216;-75
2023/12/11 02:25:32;;;;;;;4.70;4.18;;;;;;;3.45;100.00;62352.06;5103820;28;20222;-75
2023/12/11 02:28:01;;;;;;;5.10;4.43;;;;;;;3.43;100.00;62350.00;5103476;28;20216;-77
2023/12/11 02:30:30;;;;;;;4.88;4.38;;;;;;;3.34;100.00;62345.78;5085679;28;20221;-76
2023/12/11 02:32:57;;;;;;;5.20;4.32;;;;;;;3.30;100.00;62336.66;5098356;28;20232;-75
2023/12/11 02:35:24;;;;;;;4.82;3.88;;;;;;;3.14;100.00;62320.19;5106234;28;20220;-75
2023/12/11 02:37:51;;;;;;;4.07;3.70;;;;;;;2.94;100.00;62299.66;5106128;28;20196;-77
2023/12/11 02:40:17;;;;;;;4.78;4.28;;;;;;;2.84;100.00;62288.84;5091847;28;20219;-76
2023/12/11 02:42:48;;;;;;;4.38;3.97;;;;;;;2.75;100.00;62280.13;5107384;28;20200;-75
2023/12/11 02:45:16;;;;;;;4.35;3.95;;;;;;;2.75;100.00;62285.16;5106984;28;20215;-74
2023/12/11 02:47:43;;;;;;;4.28;3.88;;;;;;;2.59;100.00;62268.69;5098530;28;20223;-75
2023/12/11 02:50:10;;;;;;;4.03;3.72;;;;;;;2.31;100.00;62232.91;5091199;28;20242;-77
2023/12/11 02:52:37;;;;;;;4.90;4.18;;;;;;;2.24;100.00;62227.75;5105667;28;20226;-78
2023/12/11 02:55:05;;;;;;;4.75;3.83;;;;;;;2.14;100.00;62212.94;5106480;28;20230;-76
2023/12/11 02:57:32;;;;;;;5.25;3.92;;;;;;;2.02;100.00;62205.66;5098765;28;20216;-75
2023/12/11 02:59:59;;;;;;;3.85;3.55;;;;;;;2.08;100.00;62211.81;5093447;28;20532;-76
2023/12/11 03:02:27;;;;;;;3.88;3.58;;;;;;;2.12;100.00;62212.91;5106552;28;20206;-77
2023/12/11 03:04:54;;;;;;;3.08;2.83;;;;;;;2.19;100.00;62223.09;5106830;28;20243;-77
2023/12/11 03:07:20;;;;;;;6.70;3.28;;;;;;;2.30;100.00;62231.91;5089811;28;20201;-76
2023/12/11 03:09:46;;;;;;;3.85;3.50;;;;;;;2.36;100.00;62243.06;5087342;28;20467;-76
2023/12/11 03:12:13;;;;;;;4.25;3.80;;;;;;;2.27;100.00;62228.31;5106729;28;20368;-75
2023/12/11 03:14:40;;;;;;;5.63;3.13;;;;;;;2.43;100.00;62246.72;5107446;28;20508;-75
2023/12/11 03:17:07;;;;;;;4.57;4.18;;;;;;;2.58;100.00;62264.66;5086524;28;20204;-75
2023/12/11 03:19:35;;;;;;;3.67;3.38;;;;;;;2.49;100.00;62255.41;5106252;28;20230;-75
2023/12/11 03:22:02;;;;;;;4.75;4.30;;;;;;;2.56;100.00;62265.63;5105252;28;20208;-77
2023/12/11 03:24:28;;;;;;;3.95;3.60;;;;;;;2.70;100.00;62277.50;5106582;28;20641;-76
2023/12/11 03:26:55;;;;;;;4.07;3.78;;;;;;;2.75;100.00;62282.63;5106935;28;20211;-75
2023/12/11 03:29:22;;;;;;;4.22;3.83;;;;;;;2.84;100.00;62289.38;5100168;28;20220;-75
2023/12/11 03:31:49;;;;;;;3.58;3.28;;;;;;;2.88;100.00;62290.97;5086313;28;20224;-76
2023/12/11 03:34:16;;;;;;;3.67;3.38;;;;;;;2.74;100.00;62278.59;5085466;28;20243;-75
2023/12/11 03:36:44;;;;;;;3.60;3.25;;;;;;;2.51;100.00;62260.50;5085956;28;20207;-76
2023/12/11 03:39:11;;;;;;;4.63;3.70;;;;;;;2.63;100.00;62270.31;5085961;28;20220;-77
2023/12/11 03:41:39;;;;;;;3.78;3.40;;;;;;;2.55;100.00;62259.06;5086186;28;20203;-75
2023/12/11 03:44:06;;;;;;;3.80;3.38;;;;;;;2.53;100.00;62257.00;5086356;28;20248;-76
2023/12/11 03:46:33;;;;;;;3.33;3.05;;;;;;;2.52;100.00;62261.00;5085954;28;20215;-75
2023/12/11 03:49:00;;;;;;;4.13;3.60;;;;;;;2.48;100.00;62251.88;5094858;28;20226;-75
2023/12/11 03:51:27;;;;;;;3.13;2.80;;;;;;;2.47;100.00;62250.84;5105843;28;20222;-75
2023/12/11 03:53:56;;;;;;;4.03;3.63;;;;;;;2.46;100.00;62249.81;5105943;28;20225;-74
2023/12/11 03:56:23;;;;;;;3.97;3.60;;;;;;;2.49;100.00;62255.91;5103235;28;20228;-74
2023/12/11 03:58:50;;;;;;;3.75;3.20;;;;;;;2.44;100.00;62245.25;5104342;28;20242;-76
2023/12/11 04:01:17;;;;;;;2.42;2.33;;;;;;;2.28;100.00;62227.34;5105998;28;20260;-76
2023/12/11 04:03:43;;;;;;;2.90;2.70;;;;;;;2.31;100.00;62237.94;5106099;28;20223;-76
2023/12/11 04:06:09;;;;;;;3.35;3.05;;;;;;;2.23;100.00;62229.22;5095391;28;20384;-76
2023/12/11 04:08:40;;;;;;;3.22;2.92;;;;;;;2.25;100.00;62231.78;5085914;28;20227;-75
2023/12/11 04:11:08;;;;;;;3.90;3.50;;;;;;;2.23;100.00;62224.19;5085437;28;20220;-75
2023/12/11 04:13:35;;;;;;;2.95;2.65;;;;;;;2.11;100.00;62214.38;5085306;28;20533;-76
2023/12/11 04:16:03;;;;;;;3.28;3.03;;;;;;;2.06;100.00;62209.25;5084967;28;20215;-75
2023/12/11 04:18:30;;;;;;;3.17;2.92;;;;;;;2.03;100.00;62203.66;5091783;28;20267;-75
2023/12/11 04:20:57;;;;;;;4.32;3.00;;;;;;;2.04;100.00;62207.19;5105319;28;20203;-76
2023/12/11 04:23:24;;;;;;;3.20;3.00;;;;;;;2.03;100.00;62206.16;5105537;28;20223;-76
2023/12/11 04:25:53;;;;;;;3.33;3.03;;;;;;;2.08;100.00;62208.78;5094673;28;20242;-76
2023/12/11 04:28:21;;;;;;;2.90;2.60;;;;;;;2.02;100.00;62205.66;5106041;28;20693;-77
2023/12/11 04:30:48;;;;;;;3.22;2.80;;;;;;;2.00;100.00;62205.59;5106839;28;20196;-77
2023/12/11 04:33:15;;;;;;;6.00;2.95;;;;;;;1.97;100.00;62197.50;5098783;28;20258;-77
2023/12/11 04:35:42;;;;;;;3.60;3.30;;;;;;;2.04;100.00;62207.19;5085547;28;20200;-76
2023/12/11 04:38:09;;;;;;;2.40;2.25;;;;;;;2.07;100.00;62213.28;5084601;28;20478;-75
2023/12/11 04:40:36;;;;;;;2.78;2.58;;;;;;;2.14;100.00;62217.47;5084600;28;20224;-77
2023/12/11 04:43:03;;;;;;;3.70;3.40;;;;;;;2.14;100.00;62217.47;5084125;28;20346;-76
2023/12/11 04:45:32;;;;;;;4.10;3.70;;;;;;;2.12;100.00;62215.41;5097223;28;20228;-75
2023/12/11 04:47:59;;;;;;;3.72;3.40;;;;;;;2.18;100.00;62224.06;5104965;28;20337;-76
2023/12/11 04:50:25;;;;;;;3.13;2.92;;;;;;;2.17;100.00;62218.53;5105026;28;20492;-75
2023/12/11 04:52:52;;;;;;;3.65;3.35;;;;;;;2.11;100.00;62214.38;5104914;28;20512;-75
2023/12/11 04:55:19;;;;;;;5.72;4.38;;;;;;;2.11;100.00;62214.38;5103270;28;20219;-75
2023/12/11 04:57:46;;;;;;;11.40;5.75;;;;;;;2.08;100.00;62211.81;5104641;28;20245;-75
2023/12/11 05:00:15;;;;;;;6.65;4.68;;;;;;;2.15;100.00;62218.50;5105221;28;20283;-74
2023/12/11 05:02:43;;;;;;;8.65;4.95;;;;;;;2.16;100.00;62222.03;5104197;28;20212;-75
2023/12/11 05:05:11;;;;;;;6.72;5.78;;;;;;;2.20;100.00;62226.13;5104107;28;20552;-75
2023/12/11 05:07:38;;;;;;;5.40;4.90;;;;;;;2.25;100.00;62226.78;5109052;28;20204;-75
2023/12/11 05:10:05;;;;;;;5.13;4.63;;;;;;;2.23;100.00;62227.22;5102227;28;20224;-76
2023/12/11 05:12:32;;;;;;;4.43;4.03;;;;;;;2.27;100.00;62230.81;5102996;28;20431;-75
2023/12/11 05:15:01;;;;;;;3.47;3.05;;;;;;;2.32;100.00;62236.47;5098448;28;20211;-75
2023/12/11 05:17:28;;;;;;;3.42;3.10;;;;;;;2.32;100.00;62235.94;5102441;28;20203;-74
2023/12/11 05:19:56;;;;;;;4.22;3.70;;;;;;;2.30;100.00;62233.88;5085160;28;20254;-75
2023/12/11 05:22:23;;;;;;;4.28;3.42;;;;;;;2.26;100.00;62227.28;5091547;28;20196;-76
2023/12/11 05:24:50;;;;;;;4.25;3.85;;;;;;;2.28;100.00;62234.34;5092601;28;20223;-76
2023/12/11 05:27:18;;;;;;;3.85;3.50;;;;;;;2.26;100.00;62229.78;5098772;28;20286;-76
2023/12/11 05:29:45;;;;;;;4.22;3.47;;;;;;;2.31;100.00;62235.44;5103442;28;20528;-75
2023/12/11 05:32:12;;;;;;;3.70;3.40;;;;;;;2.38;100.00;62239.59;5104478;28;20223;-77
2023/12/11 05:34:39;;;;;;;4.15;3.75;;;;;;;2.38;100.00;62240.09;5103005;28;20231;-76
2023/12/11 05:37:08;;;;;;;3.90;3.53;;;;;;;2.56;100.00;62260.59;5102766;28;20196;-75
2023/12/11 05:39:35;;;;;;;4.72;3.92;;;;;;;2.65;100.00;62269.34;5100567;28;20222;-75
2023/12/11 05:42:02;;;;;;;4.13;3.72;;;;;;;2.70;100.00;62274.47;5102411;28;20207;-76
2023/12/11 05:44:29;;;;;;;3.40;3.10;;;;;;;2.80;100.00;62282.22;5102097;28;20224;-75
2023/12/11 05:46:56;;;;;;;4.35;4.05;;;;;;;2.88;100.00;62295.97;5101431;28;20221;-75
2023/12/11 05:49:22;;;;;;;4.60;3.75;;;;;;;2.97;100.00;62300.22;5101080;28;20224;-76
2023/12/11 05:51:50;;;;;;;4.00;3.63;;;;;;;3.08;100.00;62316.03;5103894;28;20203;-77
2023/12/11 05:54:18;;;;;;;5.22;4.13;;;;;;;3.16;100.00;62324.75;5098272;28;20232;-76
2023/12/11 05:56:45;;;;;;;3.80;3.42;;;;;;;3.26;100.00;62334.53;5101177;28;20206;-77
2023/12/11 05:59:12;;;;;;;3.97;3.30;;;;;;;3.35;100.00;62339.28;5106045;28;20411;-76
2023/12/11 06:01:39;;;;;;;3.75;3.33;;;;;;;3.40;100.00;62343.88;5093453;28;20212;-76
2023/12/11 06:04:06;;;;;;;3.88;3.58;;;;;;;3.47;100.00;62356.63;5104634;28;20311;-76
2023/12/11 06:06:33;;;;;;;5.68;3.90;;;;;;;3.53;100.00;62364.81;5095787;28;20401;-76
2023/12/11 06:09:00;;;;;;;5.35;4.82;;;;;;;3.57;100.00;62363.91;5083983;28;20227;-76
2023/12/11 06:11:28;;;;;;;7.93;4.88;;;;;;;3.63;100.00;62367.53;5096581;28;20432;-76
2023/12/11 06:13:55;;;;;;;6.03;5.35;;;;;;;3.71;100.00;62378.28;5109809;28;20299;-77
2023/12/11 06:16:22;;;;;;;5.35;4.80;;;;;;;3.71;100.00;62378.28;5105594;28;20259;-77
2023/12/11 06:18:49;;;;;;;6.50;4.72;;;;;;;3.84;100.00;62393.66;5107784;28;20275;-76
2023/12/11 06:21:19;;;;;;;8.05;5.43;;;;;;;3.80;100.00;62384.50;5089269;28;20228;-75
2023/12/11 06:23:47;;;;;;;5.68;5.28;;;;;;;3.85;100.00;62390.16;5088633;28;20216;-76
2023/12/11 06:26:29;;;;;;;5.07;4.60;;;;;;;3.95;100.00;62402.47;5087301;28;20272;-78
2023/12/11 06:28:57;;;;;;;4.22;3.88;;;;;;;4.09;100.00;62419.38;5089115;28;20283;-76
2023/12/11 06:31:25;;;;;;;5.63;4.50;;;;;;;4.16;100.00;62429.09;5087017;28;20193;-78
2023/12/11 06:33:52;;;;;;;5.00;4.55;;;;;;;4.24;100.00;62432.81;5088307;28;20259;-76
2023/12/11 06:36:19;;;;;;;5.63;4.70;;;;;;;4.14;100.00;62427.56;5086926;28;20219;-75
2023/12/11 06:38:46;;;;;;;7.03;5.18;;;;;;;4.18;100.00;62428.63;5087649;28;20230;-76
2023/12/11 06:41:13;;;;;;;6.55;5.43;;;;;;;4.18;100.00;62426.13;5086496;28;20196;-77
2023/12/11 06:43:43;;;;;;;6.53;5.93;;;;;;;4.17;100.00;62428.13;5088799;28;20304;-75
2023/12/11 06:46:10;;;;;;;7.47;6.50;;;;;;;4.25;100.00;62428.78;5086453;28;20435;-77
2023/12/11 06:48:37;;;;;;;6.13;5.50;;;;;;;4.36;100.00;62444.66;5087056;28;20557;-75
2023/12/11 06:51:04;;;;;;;8.18;5.45;;;;;;;4.45;100.00;62453.91;5087433;28;20466;-77
2023/12/11 06:53:31;;;;;;;6.97;5.43;;;;;;;4.44;100.00;62453.38;5086254;28;20224;-77
2023/12/11 06:55:58;;;;;;;6.22;5.57;;;;;;;4.24;100.00;62432.28;5086880;28;20197;-77
2023/12/11 06:58:25;;;;;;;7.80;5.68;;;;;;;4.28;100.00;62438.94;5089404;28;20222;-77
2023/12/11 07:00:54;;;;;;;7.18;5.22;;;;;;;4.22;100.00;62428.25;5086817;28;20238;-76
2023/12/11 07:03:21;;;;;;;7.15;5.28;;;;;;;4.37;100.00;62446.19;5086931;28;20203;-76
2023/12/11 07:05:48;;;;;;;10.90;5.97;;;;;;;4.53;100.00;62467.69;5086618;28;20192;-75
2023/12/11 07:08:14;;;;;;;6.88;5.45;;;;;;;4.65;100.00;62472.50;5086464;28;20228;-76
2023/12/11 07:10:42;;;;;;;8.55;6.20;;;;;;;4.78;100.00;62484.84;5086573;28;20211;-76
2023/12/11 07:13:09;;;;;;;6.95;5.80;;;;;;;4.73;100.00;62480.19;5086073;28;20239;-77
2023/12/11 07:15:36;;;;;;;7.70;6.10;;;;;;;4.79;100.00;62485.84;5086807;28;20216;-76
2023/12/11 07:18:04;;;;;;;12.10;8.18;;;;;;;4.94;100.00;62504.34;5093817;28;20223;-76
2023/12/11 07:20:33;;;;;;;10.10;8.02;;;;;;;5.12;100.00;62527.94;5106269;28;20391;-75
2023/12/11 07:23:00;;;;;;;9.60;8.35;;;;;;;5.14;100.00;62526.94;5101985;28;20200;-76
2023/12/11 07:25:27;;;;;;;11.25;7.90;;;;;;;5.02;100.00;62517.13;5089114;28;20227;-76
2023/12/11 07:27:54;;;;;;;7.65;6.72;;;;;;;4.88;100.00;62500.69;5106275;28;20203;-78
2023/12/11 07:30:21;;;;;;;7.55;5.85;;;;;;;5.04;100.00;62519.69;5106692;28;20380;-75
2023/12/11 07:32:48;;;;;;;6.40;5.68;;;;;;;5.23;100.00;62534.19;5097135;28;20234;-77
2023/12/11 07:35:16;;;;;;;9.20;7.80;;;;;;;5.18;100.00;62531.56;5086122;28;20266;-76
2023/12/11 07:37:44;;;;;;;9.85;6.72;;;;;;;5.12;100.00;62525.41;5086336;28;20196;-77
2023/12/11 07:40:12;;;;;;;8.93;6.70;;;;;;;5.02;100.00;62514.59;5085892;28;20217;-76
2023/12/11 07:42:39;;;;;;;8.48;6.10;;;;;;;5.08;100.00;62518.75;5087512;28;20196;-76
2023/12/11 07:45:07;;;;;;;7.13;6.05;;;;;;;5.10;100.00;62520.81;5086154;28;20220;-78
2023/12/11 07:47:34;;;;;;;6.95;5.95;;;;;;;5.12;100.00;62524.88;5085673;28;20486;-77
2023/12/11 07:50:01;;;;;;;6.20;5.70;;;;;;;5.15;100.00;62527.97;5085770;28;20284;-76
2023/12/11 07:52:30;;;;;;;8.77;6.68;;;;;;;5.35;100.00;62551.09;5091283;28;20199;-77
2023/12/11 07:54:57;;;;;;;7.82;6.72;;;;;;;5.39;100.00;62552.69;5104697;28;20238;-77
2023/12/11 07:57:25;;;;;;;7.35;6.40;;;;;;;5.35;100.00;62549.09;5104122;28;20204;-75
2023/12/11 07:59:52;;;;;;;7.75;6.57;;;;;;;5.48;100.00;62564.50;5100864;28;20245;-77
2023/12/11 08:02:19;;;;;;;9.55;6.50;;;;;;;5.66;100.00;62583.53;5100272;28;20206;-78
2023/12/11 08:04:46;;;;;;;7.93;6.57;;;;;;;5.69;100.00;62581.56;5105537;28;20224;-76
2023/12/11 08:07:13;;;;;;;7.35;6.57;;;;;;;5.89;100.00;62599.19;5105735;28;20204;-75
2023/12/11 08:09:42;;;;;;;6.47;4.32;;;;;;;5.90;100.00;62599.69;5104003;28;20253;-77
2023/12/11 08:12:09;;;;;;;7.13;3.70;;;;;;;5.44;100.00;62555.84;5106280;28;20467;-78
2023/12/11 08:14:37;;;;;;;4.90;3.70;;;;;;;5.53;100.00;62562.59;5105620;28;20570;-77
2023/12/11 08:17:04;;;;;;;4.40;4.00;;;;;;;5.23;100.00;62534.19;5101327;28;20284;-77
2023/12/11 08:19:32;;;;;;;6.22;4.30;;;;;;;5.38;100.00;62549.16;5103685;28;20680;-77
2023/12/11 08:21:59;;;;;;;4.90;4.50;;;;;;;5.39;100.00;62545.63;5101843;28;20200;-76
2023/12/11 08:24:26;;;;;;;5.10;4.43;;;;;;;5.51;100.00;62563.03;5097548;28;20390;-78
2023/12/11 08:26:55;;;;;;;5.60;4.38;;;;;;;5.64;100.00;62573.41;5098159;28;20220;-77
2023/12/11 08:29:22;;;;;;;5.38;4.68;;;;;;;5.42;100.00;62556.28;5096653;28;20265;-77
2023/12/11 08:31:50;;;;;;;10.77;5.22;;;;;;;5.25;100.00;62536.25;5095276;28;20196;-77
2023/12/11 08:34:16;;;;;;;7.15;5.65;;;;;;;5.57;100.00;62571.25;5094033;28;20497;-76
2023/12/11 08:36:44;;;;;;;6.25;5.65;;;;;;;5.80;100.00;62592.91;5099957;28;20221;-77
2023/12/11 08:39:11;;;;;;;7.68;5.50;;;;;;;6.08;100.00;62623.81;5095592;28;20220;-76
2023/12/11 08:41:38;;;;;;;5.93;5.43;;;;;;;6.15;100.00;62633.56;5095371;28;20484;-77
2023/12/11 08:44:06;;;;;;;6.38;5.20;;;;;;;6.12;98.66;62622.88;5098665;28;20227;-77
2023/12/11 08:46:34;;;;;;;7.18;5.38;;;;;;;6.09;99.59;62624.84;5097342;28;20374;-76
2023/12/11 08:49:01;;;;;;;7.57;4.45;;;;;;;6.16;98.04;62634.56;5101099;28;20231;-76
2023/12/11 08:51:28;;;;;;;7.15;6.43;;;;;;;6.26;97.98;62639.31;5099659;28;20200;-77
2023/12/11 08:53:55;;;;;;;9.55;5.72;;;;;;;6.20;97.72;62636.19;5093718;28;20236;-79
2023/12/11 08:56:23;;;;;;;8.10;5.97;;;;;;;6.33;97.22;62646.53;5096388;28;20396;-78
2023/12/11 08:58:50;;;;;;;7.32;4.95;;;;;;;6.21;97.14;62639.75;5096472;28;20283;-76
2023/12/11 09:01:19;;;;;;;5.63;4.03;;;;;;;5.92;95.92;62606.81;5094397;28;20211;-77
2023/12/11 09:03:46;;;;;;;3.80;3.45;;;;;;;5.90;95.54;62605.28;5099411;28;20291;-76
2023/12/11 09:06:13;;;;;;;4.25;3.85;;;;;;;5.92;97.07;62607.31;5094330;28;20196;-77
2023/12/11 09:08:40;;;;;;;4.68;4.28;;;;;;;5.93;97.84;62605.31;5099538;28;20224;-78
2023/12/11 09:11:07;;;;;;;6.35;4.32;;;;;;;6.08;97.81;62621.28;5096901;28;20208;-77
2023/12/11 09:13:34;;;;;;;5.72;3.65;;;;;;;6.09;97.66;62619.78;5095190;28;20235;-76
2023/12/11 09:16:01;;;;;;;4.82;3.92;;;;;;;6.14;98.63;62627.47;5092166;28;20211;-77
2023/12/11 09:18:29;;;;;;;5.93;4.05;;;;;;;6.08;98.96;62623.28;5098351;28;20200;-78
2023/12/11 09:20:56;;;;;;;7.43;4.45;;;;;;;6.07;100.00;62622.78;5090442;28;20228;-77
2023/12/11 09:23:24;;;;;;;8.15;4.53;;;;;;;6.03;100.00;62618.66;5097899;28;20200;-76
2023/12/11 09:25:51;;;;;;;4.47;4.07;;;;;;;6.04;100.00;62616.66;5100289;28;20262;-76
2023/12/11 09:28:17;;;;;;;5.72;5.15;;;;;;;6.25;100.00;62643.34;5096785;28;20204;-76
2023/12/11 09:30:44;;;;;;;8.68;4.55;;;;;;;6.06;99.80;62619.22;5096491;28;20204;-79
2023/12/11 09:33:11;;;;;;;6.18;5.10;;;;;;;5.88;100.00;62600.69;5099474;28;20199;-77
2023/12/11 09:35:40;;;;;;;5.75;5.15;;;;;;;5.81;100.00;62598.50;5099552;28;20213;-77
2023/12/11 09:38:07;;;;;;;5.88;5.03;;;;;;;5.91;100.00;62608.28;5092879;28;20214;-76
2023/12/11 09:40:35;;;;;;;5.15;4.68;;;;;;;5.88;100.00;62600.16;5097783;28;20222;-77
2023/12/11 09:43:02;;;;;;;6.00;4.25;;;;;;;5.85;100.00;62600.63;5096959;28;20204;-77
2023/12/11 09:45:29;;;;;;;6.60;4.35;;;;;;;5.91;100.00;62603.25;5101480;28;20257;-78
2023/12/11 09:47:57;;;;;;;4.68;4.30;;;;;;;6.12;99.14;62629.94;5097230;28;20271;-77
2023/12/11 09:50:23;;;;;;;5.32;4.70;;;;;;;6.29;97.97;62642.94;5098295;28;20555;-77
2023/12/11 09:52:53;;;;;;;4.90;4.50;;;;;;;6.45;97.34;62659.44;5099323;28;20516;-77
2023/12/11 09:55:20;;;;;;;5.43;4.50;;;;;;;6.67;95.71;62681.59;5100298;28;20249;-77
2023/12/11 09:57:47;;;;;;;5.70;4.32;;;;;;;6.79;92.57;62693.97;5104255;28;20215;-78
2023/12/11 10:00:14;;;;;;;4.65;4.28;;;;;;;6.72;93.30;62689.28;5097775;28;20278;-77
2023/12/11 10:02:42;;;;;;;5.38;4.88;;;;;;;6.93;94.33;62710.94;5097781;28;20260;-77
2023/12/11 10:05:09;;;;;;;5.00;4.60;;;;;;;7.09;89.62;62722.41;5100010;28;20219;-78
2023/12/11 10:07:36;;;;;;;5.38;4.00;;;;;;;7.14;88.44;62729.56;5102643;28;20270;-77
2023/12/11 10:10:25;;;;;;;4.90;4.50;;;;;;;7.25;89.02;62743.94;5101168;28;20234;-77
2023/12/11 10:12:52;;;;;;;5.65;4.22;;;;;;;7.37;88.54;62758.88;5104022;28;20271;-78
2023/12/11 10:15:20;;;;;;;5.82;5.32;;;;;;;7.40;88.63;62756.91;5099081;28;20299;-78
2023/12/11 10:17:47;;;;;;;3.95;3.65;;;;;;;7.59;86.77;62781.06;5100455;28;20187;-76
2023/12/11 10:20:18;;;;;;;6.65;4.30;;;;;;;7.71;85.37;62793.47;5099527;28;20235;-78
2023/12/11 10:22:45;;;;;;;6.28;4.20;;;;;;;7.73;83.08;62787.91;5101483;28;20481;-78
2023/12/11 10:25:13;;;;;;;5.07;3.97;;;;;;;7.77;82.18;62800.16;5094999;28;20256;-78
2023/12/11 10:27:41;;;;;;;72.78;30.77;;;;;;;7.77;81.06;62797.09;5101429;28;20258;-78
2023/12/11 10:30:11;;;;;;;6.00;4.80;;;;;;;7.70;80.61;62794.94;5098622;28;20233;-77
2023/12/11 10:32:37;;;;;;;6.53;3.72;;;;;;;6.97;83.73;62718.13;5102306;28;20245;-77
2023/12/11 10:35:06;;;;;;;7.80;5.32;;;;;;;6.57;88.46;62674.34;5096973;28;22884;-76
2023/12/11 10:37:34;;;;;;;9.20;4.22;;;;;;;6.82;88.89;62699.59;5097170;28;20196;-78
2023/12/11 10:40:01;;;;;;;4.32;4.00;;;;;;;7.05;87.59;62720.78;5099787;28;20405;-77
2023/12/11 10:42:28;;;;;;;4.53;4.15;;;;;;;7.22;85.51;62742.88;5100089;28;20199;-78
2023/12/11 10:44:57;;;;;;;4.97;4.03;;;;;;;7.35;84.82;62754.28;5101090;28;20224;-78
2023/12/11 10:47:24;;;;;;;4.50;4.10;;;;;;;7.29;83.39;62745.56;5096351;28;20235;-78
2023/12/11 10:49:51;;;;;;;9.00;4.53;;;;;;;7.18;85.95;62734.19;5098314;28;20224;-78
2023/12/11 10:52:18;;;;;;;4.15;3.75;;;;;;;7.36;84.37;62755.31;5097846;28;20210;-78
2023/12/11 10:54:45;;;;;;;5.72;4.68;;;;;;;7.57;84.07;62776.47;5100365;28;20239;-78
2023/12/11 10:57:13;;;;;;;4.78;3.85;;;;;;;7.58;84.50;62780.03;5103113;28;20208;-76
2023/12/11 10:59:41;;;;;;;5.80;4.40;;;;;;;7.36;82.83;62754.78;5098027;28;20216;-77
2023/12/11 11:02:09;;;;;;;5.15;4.65;;;;;;;7.28;83.73;62744.53;5100630;28;20584;-77
2023/12/11 11:04:39;;;;;;;4.35;3.95;;;;;;;7.31;84.44;62747.63;5096904;28;20223;-78
2023/12/11 11:07:09;;;;;;;6.38;4.63;;;;;;;7.46;84.45;62765.09;5101681;28;20219;-77
2023/12/11 11:09:40;;;;;;;7.32;5.07;;;;;;;7.69;85.43;62791.91;5100678;28;20269;-77
2023/12/11 11:12:11;;;;;;;8.77;5.60;;;;;;;7.67;84.79;62787.31;5096384;28;20204;-77
2023/12/11 11:14:48;;;;;;;6.57;4.90;;;;;;;7.81;84.11;62796.19;5094024;28;20419;-78
2023/12/11 11:17:17;;;;;;;7.57;4.65;;;;;;;7.94;83.18;62814.66;5106494;28;20361;-77
2023/12/11 11:20:10;;;;;;;5.90;4.40;;;;;;;8.04;80.89;62828.03;5101996;28;20226;-77
2023/12/11 11:22:37;;;;;;;7.30;5.03;;;;;;;8.14;81.23;62833.28;5089991;28;20369;-77
2023/12/11 11:25:31;;;;;;;6.03;4.65;;;;;;;8.07;81.49;62828.63;5096384;28;20221;-77
2023/12/11 11:27:58;;;;;;;5.72;4.80;;;;;;;8.14;82.31;62837.84;5100453;28;20243;-79
2023/12/11 11:30:52;;;;;;;5.53;4.95;;;;;;;8.09;82.57;62830.66;5104430;28;20223;-77
2023/12/11 11:33:21;;;;;;;11.55;5.13;;;;;;;8.13;81.13;62832.25;5104127;28;20200;-78
2023/12/11 11:35:53;;;;;;;4.93;4.55;;;;;;;8.29;80.51;62855.38;5103403;28;20355;-78